This is the latest recevied weather packets stored in our database for station/object K5DLF-13. If no packets are shown the sender has not sent any weather packets the latest 1 day(s).
| Time | Temp. | Humidity | Pressure | Rain* | Wind** | Luminosity | Snow |
|---|---|---|---|---|---|---|---|
| 1778015997 | 27.78° C | 84% | 1005.5 hPa | 0 mm | 1.34 m/s, 117° | 134 W/m² | - |
| 1778015697 | 27.78° C | 85% | 1005.6 hPa | 0 mm | 1.34 m/s, 186° | 244 W/m² | - |
| 1778015397 | 27.22° C | 85% | 1005.6 hPa | 0 mm | 1.79 m/s, 192° | 364 W/m² | - |
| 1778015097 | 27.22° C | 85% | 1005.5 hPa | 0 mm | 1.79 m/s, 157° | 315 W/m² | - |
| 1778014797 | 27.22° C | 85% | 1005.6 hPa | 0 mm | 1.34 m/s, 168° | 360 W/m² | - |
| 1778014497 | 27.22° C | 86% | 1005.9 hPa | 0 mm | 0.89 m/s, 216° | 153 W/m² | - |
| 1778014197 | 27.22° C | 85% | 1006 hPa | 0 mm | 0.89 m/s, 216° | 193 W/m² | - |
| 1778013897 | 27.22° C | 85% | 1006.1 hPa | 0 mm | 0.89 m/s, 216° | 135 W/m² | - |
| 1778013597 | 27.22° C | 85% | 1006.1 hPa | 0 mm | 1.34 m/s, 218° | 251 W/m² | - |
| 1778013297 | 27.22° C | 85% | 1006.3 hPa | 0 mm | 1.34 m/s, 223° | 135 W/m² | - |
| 1778012997 | 27.22° C | 86% | 1006.1 hPa | 0 mm | 0.89 m/s, 171° | 253 W/m² | - |
| 1778012697 | 27.22° C | 86% | 1006.3 hPa | 0 mm | 0.89 m/s, 202° | 281 W/m² | - |
| 1778012397 | 27.22° C | 86% | 1006.3 hPa | 0 mm | 0.89 m/s, 202° | 193 W/m² | - |
| 1778012097 | 27.22° C | 86% | 1006.4 hPa | 0 mm | 0.89 m/s, 202° | 255 W/m² | - |
| 1778011797 | 27.22° C | 85% | 1006.4 hPa | 0 mm | 0.89 m/s, 203° | 204 W/m² | - |
| 1778011497 | 27.22° C | 85% | 1006.4 hPa | 0 mm | 0.89 m/s, 200° | 160 W/m² | - |
| 1778011197 | 27.22° C | 85% | 1006.4 hPa | 0 mm | 0.89 m/s, 196° | 144 W/m² | - |
| 1778010897 | 27.78° C | 84% | 1006.4 hPa | 0 mm | 0.89 m/s, 199° | 109 W/m² | - |
| 1778010597 | 27.78° C | 86% | 1006.5 hPa | 0 mm | 0.89 m/s, 211° | 172 W/m² | - |
| 1778010297 | 27.22° C | 86% | 1006.5 hPa | 0 mm | 0.89 m/s, 211° | 306 W/m² | - |
| 1778010001 | 27.22° C | 85% | 1006.4 hPa | 0 mm | 0.89 m/s, 211° | 297 W/m² | - |
| 1778009697 | 27.22° C | 85% | 1006.4 hPa | 0 mm | 0.89 m/s, 212° | 127 W/m² | - |
| 1778009397 | 27.22° C | 85% | 1006.4 hPa | 0 mm | 0.89 m/s, 214° | 202 W/m² | - |
| 1778009097 | 27.22° C | 85% | 1006.4 hPa | 0 mm | 0.89 m/s, 222° | 229 W/m² | - |
| 1778008797 | 27.22° C | 86% | 1006.5 hPa | 0 mm | 0.89 m/s, 221° | 315 W/m² | - |
* Rain latest hour (hover to see other rain measurements)
** Current wind speed in m/s (hover to see current wind gust speed)